sensor_id;sensor_type;location;lat;lon;timestamp;P1;P4;P2;P0;N10;N4;N25;N1;N05;TS
82310;SPS30;72015;51.330;12.316;2024-02-23T00:03:41;1.44;;1.44;;;;;;;
82310;SPS30;72015;51.330;12.316;2024-02-23T00:08:00;1.38;;1.23;;;;;;;
82310;SPS30;72015;51.330;12.316;2024-02-23T00:12:22;1.38;;1.23;;;;;;;
82310;SPS30;72015;51.330;12.316;2024-02-23T00:16:44;1.38;;1.23;;;;;;;
82310;SPS30;72015;51.330;12.316;2024-02-23T00:21:09;0.83;;0.83;;;;;;;
82310;SPS30;72015;51.330;12.316;2024-02-23T00:25:30;0.83;;0.83;;;;;;;
82310;SPS30;72015;51.330;12.316;2024-02-23T00:29:50;1.10;;1.10;;;;;;;
82310;SPS30;72015;51.330;12.316;2024-02-23T00:34:12;1.10;;1.10;;;;;;;
82310;SPS30;72015;51.330;12.316;2024-02-23T00:38:34;1.95;;1.54;;;;;;;
82310;SPS30;72015;51.330;12.316;2024-02-23T00:42:56;1.95;;1.54;;;;;;;
82310;SPS30;72015;51.330;12.316;2024-02-23T00:47:18;0.75;;0.75;;;;;;;
82310;SPS30;72015;51.330;12.316;2024-02-23T00:51:40;0.75;;0.75;;;;;;;
82310;SPS30;72015;51.330;12.316;2024-02-23T00:56:02;0.75;;0.75;;;;;;;
82310;SPS30;72015;51.330;12.316;2024-02-23T01:00:24;0.95;;0.95;;;;;;;
82310;SPS30;72015;51.330;12.316;2024-02-23T01:04:46;0.95;;0.95;;;;;;;
82310;SPS30;72015;51.330;12.316;2024-02-23T01:09:08;1.43;;1.13;;;;;;;
82310;SPS30;72015;51.330;12.316;2024-02-23T01:13:30;1.43;;1.13;;;;;;;
82310;SPS30;72015;51.330;12.316;2024-02-23T01:17:52;0.76;;0.76;;;;;;;
82310;SPS30;72015;51.330;12.316;2024-02-23T01:22:14;0.76;;0.76;;;;;;;
82310;SPS30;72015;51.330;12.316;2024-02-23T01:26:36;0.76;;0.76;;;;;;;
82310;SPS30;72015;51.330;12.316;2024-02-23T01:30:58;1.44;;1.19;;;;;;;
82310;SPS30;72015;51.330;12.316;2024-02-23T01:35:20;1.44;;1.19;;;;;;;
82310;SPS30;72015;51.330;12.316;2024-02-23T01:39:42;3.27;;2.16;;;;;;;
82310;SPS30;72015;51.330;12.316;2024-02-23T01:44:04;3.27;;2.16;;;;;;;
82310;SPS30;72015;51.330;12.316;2024-02-23T01:48:26;1.36;;1.12;;;;;;;
82310;SPS30;72015;51.330;12.316;2024-02-23T01:52:48;1.36;;1.12;;;;;;;
82310;SPS30;72015;51.330;12.316;2024-02-23T01:57:12;1.36;;1.15;;;;;;;
82310;SPS30;72015;51.330;12.316;2024-02-23T02:01:34;1.36;;1.15;;;;;;;
82310;SPS30;72015;51.330;12.316;2024-02-23T02:05:54;1.36;;1.15;;;;;;;
82310;SPS30;72015;51.330;12.316;2024-02-23T02:10:16;1.86;;1.32;;;;;;;
82310;SPS30;72015;51.330;12.316;2024-02-23T02:19:00;0.47;;0.47;;;;;;;
82310;SPS30;72015;51.330;12.316;2024-02-23T02:23:22;0.47;;0.47;;;;;;;
82310;SPS30;72015;51.330;12.316;2024-02-23T02:27:44;2.85;;1.86;;;;;;;
82310;SPS30;72015;51.330;12.316;2024-02-23T02:32:06;2.85;;1.86;;;;;;;
82310;SPS30;72015;51.330;12.316;2024-02-23T02:36:28;2.85;;1.86;;;;;;;
82310;SPS30;72015;51.330;12.316;2024-02-23T02:40:50;0.86;;0.66;;;;;;;
82310;SPS30;72015;51.330;12.316;2024-02-23T02:45:14;0.86;;0.66;;;;;;;
82310;SPS30;72015;51.330;12.316;2024-02-23T02:49:34;0.32;;0.32;;;;;;;
82310;SPS30;72015;51.330;12.316;2024-02-23T02:53:56;0.32;;0.32;;;;;;;
82310;SPS30;72015;51.330;12.316;2024-02-23T02:58:21;0.87;;0.67;;;;;;;
82310;SPS30;72015;51.330;12.316;2024-02-23T03:02:40;0.87;;0.67;;;;;;;
82310;SPS30;72015;51.330;12.316;2024-02-23T03:07:02;0.87;;0.67;;;;;;;
82310;SPS30;72015;51.330;12.316;2024-02-23T03:11:24;1.07;;0.89;;;;;;;
82310;SPS30;72015;51.330;12.316;2024-02-23T03:15:46;1.07;;0.89;;;;;;;
82310;SPS30;72015;51.330;12.316;2024-02-23T03:20:08;0.85;;0.69;;;;;;;
82310;SPS30;72015;51.330;12.316;2024-02-23T03:24:30;0.85;;0.69;;;;;;;
82310;SPS30;72015;51.330;12.316;2024-02-23T03:28:52;1.76;;1.31;;;;;;;
82310;SPS30;72015;51.330;12.316;2024-02-23T03:33:14;1.76;;1.31;;;;;;;
82310;SPS30;72015;51.330;12.316;2024-02-23T03:37:36;2.60;;1.70;;;;;;;
82310;SPS30;72015;51.330;12.316;2024-02-23T03:41:58;2.60;;1.70;;;;;;;
82310;SPS30;72015;51.330;12.316;2024-02-23T03:46:20;2.60;;1.70;;;;;;;
82310;SPS30;72015;51.330;12.316;2024-02-23T03:50:42;1.71;;1.11;;;;;;;
82310;SPS30;72015;51.330;12.316;2024-02-23T03:55:04;1.71;;1.11;;;;;;;
82310;SPS30;72015;51.330;12.316;2024-02-23T03:59:26;1.42;;1.00;;;;;;;
82310;SPS30;72015;51.330;12.316;2024-02-23T04:03:48;1.42;;1.00;;;;;;;
82310;SPS30;72015;51.330;12.316;2024-02-23T04:08:10;1.54;;1.13;;;;;;;
82310;SPS30;72015;51.330;12.316;2024-02-23T04:12:32;1.54;;1.13;;;;;;;
82310;SPS30;72015;51.330;12.316;2024-02-23T04:16:54;1.54;;1.13;;;;;;;
82310;SPS30;72015;51.330;12.316;2024-02-23T04:21:16;1.14;;0.85;;;;;;;
82310;SPS30;72015;51.330;12.316;2024-02-23T04:25:38;1.14;;0.85;;;;;;;
82310;SPS30;72015;51.330;12.316;2024-02-23T04:30:00;1.04;;0.82;;;;;;;
82310;SPS30;72015;51.330;12.316;2024-02-23T04:34:22;1.04;;0.82;;;;;;;
82310;SPS30;72015;51.330;12.316;2024-02-23T04:38:44;0.96;;0.78;;;;;;;
82310;SPS30;72015;51.330;12.316;2024-02-23T04:43:06;0.96;;0.78;;;;;;;
82310;SPS30;72015;51.330;12.316;2024-02-23T04:47:28;0.59;;0.59;;;;;;;
82310;SPS30;72015;51.330;12.316;2024-02-23T04:51:50;0.59;;0.59;;;;;;;
82310;SPS30;72015;51.330;12.316;2024-02-23T04:56:12;0.59;;0.59;;;;;;;
82310;SPS30;72015;51.330;12.316;2024-02-23T05:00:34;0.91;;0.78;;;;;;;
82310;SPS30;72015;51.330;12.316;2024-02-23T05:04:56;0.91;;0.78;;;;;;;
82310;SPS30;72015;51.330;12.316;2024-02-23T05:09:18;0.64;;0.64;;;;;;;
82310;SPS30;72015;51.330;12.316;2024-02-23T05:13:40;0.64;;0.64;;;;;;;
82310;SPS30;72015;51.330;12.316;2024-02-23T05:18:02;1.72;;1.18;;;;;;;
82310;SPS30;72015;51.330;12.316;2024-02-23T05:22:24;1.72;;1.18;;;;;;;
82310;SPS30;72015;51.330;12.316;2024-02-23T05:26:46;1.72;;1.18;;;;;;;
82310;SPS30;72015;51.330;12.316;2024-02-23T05:31:09;1.49;;1.03;;;;;;;
82310;SPS30;72015;51.330;12.316;2024-02-23T05:35:30;1.49;;1.03;;;;;;;
82310;SPS30;72015;51.330;12.316;2024-02-23T05:39:52;2.22;;1.44;;;;;;;
82310;SPS30;72015;51.330;12.316;2024-02-23T05:44:14;2.22;;1.44;;;;;;;
82310;SPS30;72015;51.330;12.316;2024-02-23T05:48:36;1.48;;1.09;;;;;;;
82310;SPS30;72015;51.330;12.316;2024-02-23T05:52:58;1.48;;1.09;;;;;;;
82310;SPS30;72015;51.330;12.316;2024-02-23T05:57:20;0.55;;0.55;;;;;;;
82310;SPS30;72015;51.330;12.316;2024-02-23T06:01:42;0.55;;0.55;;;;;;;
82310;SPS30;72015;51.330;12.316;2024-02-23T06:06:07;0.55;;0.55;;;;;;;
82310;SPS30;72015;51.330;12.316;2024-02-23T06:10:26;1.06;;0.85;;;;;;;
82310;SPS30;72015;51.330;12.316;2024-02-23T06:14:48;1.06;;0.85;;;;;;;
82310;SPS30;72015;51.330;12.316;2024-02-23T06:19:10;0.92;;0.72;;;;;;;
82310;SPS30;72015;51.330;12.316;2024-02-23T06:23:32;0.92;;0.72;;;;;;;
82310;SPS30;72015;51.330;12.316;2024-02-23T06:27:54;1.43;;1.02;;;;;;;
82310;SPS30;72015;51.330;12.316;2024-02-23T06:32:16;1.43;;1.02;;;;;;;
82310;SPS30;72015;51.330;12.316;2024-02-23T06:36:41;1.43;;1.02;;;;;;;
82310;SPS30;72015;51.330;12.316;2024-02-23T06:41:00;0.50;;0.50;;;;;;;
82310;SPS30;72015;51.330;12.316;2024-02-23T06:45:22;0.50;;0.50;;;;;;;
82310;SPS30;72015;51.330;12.316;2024-02-23T06:49:44;0.50;;0.50;;;;;;;
82310;SPS30;72015;51.330;12.316;2024-02-23T06:54:06;0.50;;0.50;;;;;;;
82310;SPS30;72015;51.330;12.316;2024-02-23T06:58:31;1.13;;1.13;;;;;;;
82310;SPS30;72015;51.330;12.316;2024-02-23T07:02:50;1.13;;1.13;;;;;;;
82310;SPS30;72015;51.330;12.316;2024-02-23T07:07:12;1.84;;1.66;;;;;;;
82310;SPS30;72015;51.330;12.316;2024-02-23T07:11:34;1.84;;1.66;;;;;;;
82310;SPS30;72015;51.330;12.316;2024-02-23T07:15:56;1.84;;1.66;;;;;;;
82310;SPS30;72015;51.330;12.316;2024-02-23T07:20:18;3.07;;2.45;;;;;;;
82310;SPS30;72015;51.330;12.316;2024-02-23T07:24:41;3.07;;2.45;;;;;;;
82310;SPS30;72015;51.330;12.316;2024-02-23T07:29:02;0.45;;0.45;;;;;;;
82310;SPS30;72015;51.330;12.316;2024-02-23T07:33:24;0.45;;0.45;;;;;;;
82310;SPS30;72015;51.330;12.316;2024-02-23T07:37:46;1.42;;1.02;;;;;;;
82310;SPS30;72015;51.330;12.316;2024-02-23T07:42:08;1.42;;1.02;;;;;;;
82310;SPS30;72015;51.330;12.316;2024-02-23T07:46:30;1.42;;1.02;;;;;;;
82310;SPS30;72015;51.330;12.316;2024-02-23T07:50:52;3.16;;2.06;;;;;;;
82310;SPS30;72015;51.330;12.316;2024-02-23T07:55:14;3.16;;2.06;;;;;;;
82310;SPS30;72015;51.330;12.316;2024-02-23T07:59:36;2.18;;1.54;;;;;;;
82310;SPS30;72015;51.330;12.316;2024-02-23T08:03:58;2.18;;1.54;;;;;;;
82310;SPS30;72015;51.330;12.316;2024-02-23T08:08:20;2.23;;1.71;;;;;;;
82310;SPS30;72015;51.330;12.316;2024-02-23T08:12:42;2.23;;1.71;;;;;;;
82310;SPS30;72015;51.330;12.316;2024-02-23T08:17:04;2.23;;1.71;;;;;;;
82310;SPS30;72015;51.330;12.316;2024-02-23T08:21:26;0.97;;0.71;;;;;;;
82310;SPS30;72015;51.330;12.316;2024-02-23T08:25:48;0.97;;0.71;;;;;;;
82310;SPS30;72015;51.330;12.316;2024-02-23T08:30:10;1.11;;1.11;;;;;;;
82310;SPS30;72015;51.330;12.316;2024-02-23T08:34:32;1.11;;1.11;;;;;;;
82310;SPS30;72015;51.330;12.316;2024-02-23T08:38:54;6.20;;4.05;;;;;;;
82310;SPS30;72015;51.330;12.316;2024-02-23T08:43:16;6.20;;4.05;;;;;;;
82310;SPS30;72015;51.330;12.316;2024-02-23T08:47:38;2.21;;1.64;;;;;;;
82310;SPS30;72015;51.330;12.316;2024-02-23T08:52:00;2.21;;1.64;;;;;;;
82310;SPS30;72015;51.330;12.316;2024-02-23T08:56:22;2.21;;1.64;;;;;;;
82310;SPS30;72015;51.330;12.316;2024-02-23T09:00:44;2.48;;1.65;;;;;;;
82310;SPS30;72015;51.330;12.316;2024-02-23T09:05:06;2.48;;1.65;;;;;;;
82310;SPS30;72015;51.330;12.316;2024-02-23T09:09:28;1.93;;1.37;;;;;;;
82310;SPS30;72015;51.330;12.316;2024-02-23T09:13:50;1.93;;1.37;;;;;;;
82310;SPS30;72015;51.330;12.316;2024-02-23T09:18:12;1.58;;1.22;;;;;;;
82310;SPS30;72015;51.330;12.316;2024-02-23T09:22:34;1.58;;1.22;;;;;;;
82310;SPS30;72015;51.330;12.316;2024-02-23T09:26:56;1.58;;1.22;;;;;;;
82310;SPS30;72015;51.330;12.316;2024-02-23T09:31:18;2.93;;2.32;;;;;;;
82310;SPS30;72015;51.330;12.316;2024-02-23T09:35:40;2.93;;2.32;;;;;;;
82310;SPS30;72015;51.330;12.316;2024-02-23T09:40:02;2.04;;1.79;;;;;;;
82310;SPS30;72015;51.330;12.316;2024-02-23T09:44:24;2.04;;1.79;;;;;;;
82310;SPS30;72015;51.330;12.316;2024-02-23T09:48:47;0.69;;0.66;;;;;;;
82310;SPS30;72015;51.330;12.316;2024-02-23T09:53:08;0.69;;0.66;;;;;;;
82310;SPS30;72015;51.330;12.316;2024-02-23T09:57:30;2.08;;1.50;;;;;;;
82310;SPS30;72015;51.330;12.316;2024-02-23T10:01:52;2.08;;1.50;;;;;;;
82310;SPS30;72015;51.330;12.316;2024-02-23T10:06:14;2.08;;1.50;;;;;;;
82310;SPS30;72015;51.330;12.316;2024-02-23T10:10:36;0.55;;0.55;;;;;;;
82310;SPS30;72015;51.330;12.316;2024-02-23T10:14:58;0.55;;0.55;;;;;;;
82310;SPS30;72015;51.330;12.316;2024-02-23T10:19:20;4.98;;3.38;;;;;;;
82310;SPS30;72015;51.330;12.316;2024-02-23T10:23:43;4.98;;3.38;;;;;;;
82310;SPS30;72015;51.330;12.316;2024-02-23T10:28:05;0.69;;0.69;;;;;;;
82310;SPS30;72015;51.330;12.316;2024-02-23T10:32:26;0.69;;0.69;;;;;;;
82310;SPS30;72015;51.330;12.316;2024-02-23T10:36:48;0.69;;0.69;;;;;;;
82310;SPS30;72015;51.330;12.316;2024-02-23T10:41:10;3.57;;2.45;;;;;;;
82310;SPS30;72015;51.330;12.316;2024-02-23T10:45:32;3.57;;2.45;;;;;;;
82310;SPS30;72015;51.330;12.316;2024-02-23T10:49:54;1.82;;1.48;;;;;;;
82310;SPS30;72015;51.330;12.316;2024-02-23T10:54:16;1.82;;1.48;;;;;;;
82310;SPS30;72015;51.330;12.316;2024-02-23T10:58:38;2.11;;1.49;;;;;;;
82310;SPS30;72015;51.330;12.316;2024-02-23T11:03:00;2.11;;1.49;;;;;;;
82310;SPS30;72015;51.330;12.316;2024-02-23T11:07:22;2.86;;2.02;;;;;;;
82310;SPS30;72015;51.330;12.316;2024-02-23T11:16:07;2.86;;2.02;;;;;;;
82310;SPS30;72015;51.330;12.316;2024-02-23T11:24:50;1.18;;0.97;;;;;;;
82310;SPS30;72015;51.330;12.316;2024-02-23T11:29:12;2.08;;1.62;;;;;;;
82310;SPS30;72015;51.330;12.316;2024-02-23T11:33:36;2.08;;1.62;;;;;;;
82310;SPS30;72015;51.330;12.316;2024-02-23T11:37:56;4.28;;2.92;;;;;;;
82310;SPS30;72015;51.330;12.316;2024-02-23T11:42:18;4.28;;2.92;;;;;;;
82310;SPS30;72015;51.330;12.316;2024-02-23T11:46:40;4.28;;2.92;;;;;;;
82310;SPS30;72015;51.330;12.316;2024-02-23T11:51:02;1.53;;1.34;;;;;;;
82310;SPS30;72015;51.330;12.316;2024-02-23T11:55:24;1.53;;1.34;;;;;;;
82310;SPS30;72015;51.330;12.316;2024-02-23T11:59:46;3.38;;2.32;;;;;;;
82310;SPS30;72015;51.330;12.316;2024-02-23T12:04:08;3.38;;2.32;;;;;;;
82310;SPS30;72015;51.330;12.316;2024-02-23T12:08:30;1.81;;1.52;;;;;;;
82310;SPS30;72015;51.330;12.316;2024-02-23T12:12:53;1.81;;1.52;;;;;;;
82310;SPS30;72015;51.330;12.316;2024-02-23T12:17:14;2.88;;2.08;;;;;;;
82310;SPS30;72015;51.330;12.316;2024-02-23T12:21:36;2.88;;2.08;;;;;;;
82310;SPS30;72015;51.330;12.316;2024-02-23T12:25:58;2.88;;2.08;;;;;;;
82310;SPS30;72015;51.330;12.316;2024-02-23T12:30:20;1.39;;1.39;;;;;;;
82310;SPS30;72015;51.330;12.316;2024-02-23T12:34:43;1.39;;1.39;;;;;;;
82310;SPS30;72015;51.330;12.316;2024-02-23T12:39:04;1.38;;1.22;;;;;;;
82310;SPS30;72015;51.330;12.316;2024-02-23T12:43:26;1.38;;1.22;;;;;;;
82310;SPS30;72015;51.330;12.316;2024-02-23T12:47:48;2.87;;2.03;;;;;;;
82310;SPS30;72015;51.330;12.316;2024-02-23T12:52:10;2.87;;2.03;;;;;;;
82310;SPS30;72015;51.330;12.316;2024-02-23T12:56:32;2.87;;2.03;;;;;;;
82310;SPS30;72015;51.330;12.316;2024-02-23T13:00:54;1.01;;1.01;;;;;;;
82310;SPS30;72015;51.330;12.316;2024-02-23T13:05:16;1.01;;1.01;;;;;;;
82310;SPS30;72015;51.330;12.316;2024-02-23T13:09:38;2.32;;1.63;;;;;;;
82310;SPS30;72015;51.330;12.316;2024-02-23T13:14:00;2.32;;1.63;;;;;;;
82310;SPS30;72015;51.330;12.316;2024-02-23T13:18:22;3.08;;2.21;;;;;;;
82310;SPS30;72015;51.330;12.316;2024-02-23T13:22:44;3.08;;2.21;;;;;;;
82310;SPS30;72015;51.330;12.316;2024-02-23T13:27:06;3.08;;2.21;;;;;;;
82310;SPS30;72015;51.330;12.316;2024-02-23T13:31:28;0.99;;0.99;;;;;;;
82310;SPS30;72015;51.330;12.316;2024-02-23T13:35:50;0.99;;0.99;;;;;;;
82310;SPS30;72015;51.330;12.316;2024-02-23T13:40:12;1.70;;1.33;;;;;;;
82310;SPS30;72015;51.330;12.316;2024-02-23T13:44:34;1.70;;1.33;;;;;;;
82310;SPS30;72015;51.330;12.316;2024-02-23T13:53:18;1.23;;1.15;;;;;;;
82310;SPS30;72015;51.330;12.316;2024-02-23T13:57:40;0.83;;0.83;;;;;;;
82310;SPS30;72015;51.330;12.316;2024-02-23T14:02:02;0.83;;0.83;;;;;;;
82310;SPS30;72015;51.330;12.316;2024-02-23T14:06:24;0.83;;0.83;;;;;;;
82310;SPS30;72015;51.330;12.316;2024-02-23T14:10:46;2.43;;1.81;;;;;;;
82310;SPS30;72015;51.330;12.316;2024-02-23T14:15:08;2.43;;1.81;;;;;;;
82310;SPS30;72015;51.330;12.316;2024-02-23T14:19:30;1.22;;1.06;;;;;;;
82310;SPS30;72015;51.330;12.316;2024-02-23T14:23:52;1.22;;1.06;;;;;;;
82310;SPS30;72015;51.330;12.316;2024-02-23T14:28:14;2.44;;1.75;;;;;;;
82310;SPS30;72015;51.330;12.316;2024-02-23T14:32:36;2.44;;1.75;;;;;;;
82310;SPS30;72015;51.330;12.316;2024-02-23T14:36:58;2.44;;1.75;;;;;;;
82310;SPS30;72015;51.330;12.316;2024-02-23T14:41:20;1.25;;1.15;;;;;;;
82310;SPS30;72015;51.330;12.316;2024-02-23T14:45:42;1.25;;1.15;;;;;;;
82310;SPS30;72015;51.330;12.316;2024-02-23T14:50:04;1.42;;1.27;;;;;;;
82310;SPS30;72015;51.330;12.316;2024-02-23T14:54:26;1.42;;1.27;;;;;;;
82310;SPS30;72015;51.330;12.316;2024-02-23T14:58:48;2.02;;1.54;;;;;;;
82310;SPS30;72015;51.330;12.316;2024-02-23T15:03:10;2.02;;1.54;;;;;;;
82310;SPS30;72015;51.330;12.316;2024-02-23T15:07:32;1.29;;1.29;;;;;;;
82310;SPS30;72015;51.330;12.316;2024-02-23T15:11:54;1.29;;1.29;;;;;;;
82310;SPS30;72015;51.330;12.316;2024-02-23T15:16:16;1.29;;1.29;;;;;;;
82310;SPS30;72015;51.330;12.316;2024-02-23T15:20:38;0.99;;0.90;;;;;;;
82310;SPS30;72015;51.330;12.316;2024-02-23T15:25:00;0.99;;0.90;;;;;;;
82310;SPS30;72015;51.330;12.316;2024-02-23T15:29:22;3.55;;2.55;;;;;;;
82310;SPS30;72015;51.330;12.316;2024-02-23T15:33:44;3.55;;2.55;;;;;;;
82310;SPS30;72015;51.330;12.316;2024-02-23T15:38:06;2.37;;1.89;;;;;;;
82310;SPS30;72015;51.330;12.316;2024-02-23T15:42:28;2.37;;1.89;;;;;;;
82310;SPS30;72015;51.330;12.316;2024-02-23T15:46:50;2.37;;1.89;;;;;;;
82310;SPS30;72015;51.330;12.316;2024-02-23T15:51:12;3.14;;2.33;;;;;;;
82310;SPS30;72015;51.330;12.316;2024-02-23T15:55:34;3.14;;2.33;;;;;;;
82310;SPS30;72015;51.330;12.316;2024-02-23T15:59:56;1.56;;1.41;;;;;;;
82310;SPS30;72015;51.330;12.316;2024-02-23T16:04:18;1.56;;1.41;;;;;;;
82310;SPS30;72015;51.330;12.316;2024-02-23T16:08:43;1.26;;1.26;;;;;;;
82310;SPS30;72015;51.330;12.316;2024-02-23T16:13:02;1.26;;1.26;;;;;;;
82310;SPS30;72015;51.330;12.316;2024-02-23T16:17:24;2.52;;2.04;;;;;;;
82310;SPS30;72015;51.330;12.316;2024-02-23T16:21:46;2.52;;2.04;;;;;;;
82310;SPS30;72015;51.330;12.316;2024-02-23T16:26:08;2.52;;2.04;;;;;;;
82310;SPS30;72015;51.330;12.316;2024-02-23T16:30:30;2.80;;2.22;;;;;;;
82310;SPS30;72015;51.330;12.316;2024-02-23T16:34:52;2.80;;2.22;;;;;;;
82310;SPS30;72015;51.330;12.316;2024-02-23T16:39:14;1.69;;1.69;;;;;;;
82310;SPS30;72015;51.330;12.316;2024-02-23T16:43:36;1.69;;1.69;;;;;;;
82310;SPS30;72015;51.330;12.316;2024-02-23T16:47:58;2.42;;2.13;;;;;;;
82310;SPS30;72015;51.330;12.316;2024-02-23T16:52:20;2.42;;2.13;;;;;;;
82310;SPS30;72015;51.330;12.316;2024-02-23T16:56:42;2.42;;2.13;;;;;;;
82310;SPS30;72015;51.330;12.316;2024-02-23T17:01:05;3.28;;2.76;;;;;;;
82310;SPS30;72015;51.330;12.316;2024-02-23T17:05:26;3.28;;2.76;;;;;;;
82310;SPS30;72015;51.330;12.316;2024-02-23T17:09:49;1.57;;1.57;;;;;;;
82310;SPS30;72015;51.330;12.316;2024-02-23T17:14:10;1.57;;1.57;;;;;;;
82310;SPS30;72015;51.330;12.316;2024-02-23T17:18:32;2.89;;2.75;;;;;;;
82310;SPS30;72015;51.330;12.316;2024-02-23T17:22:54;2.89;;2.75;;;;;;;
82310;SPS30;72015;51.330;12.316;2024-02-23T17:27:16;9.26;;8.67;;;;;;;
82310;SPS30;72015;51.330;12.316;2024-02-23T17:31:38;9.26;;8.67;;;;;;;
82310;SPS30;72015;51.330;12.316;2024-02-23T17:36:00;9.26;;8.67;;;;;;;
82310;SPS30;72015;51.330;12.316;2024-02-23T17:40:22;5.70;;5.12;;;;;;;
82310;SPS30;72015;51.330;12.316;2024-02-23T17:44:44;5.70;;5.12;;;;;;;
82310;SPS30;72015;51.330;12.316;2024-02-23T17:49:06;3.55;;3.52;;;;;;;
82310;SPS30;72015;51.330;12.316;2024-02-23T17:53:28;3.55;;3.52;;;;;;;
82310;SPS30;72015;51.330;12.316;2024-02-23T17:57:50;2.57;;2.57;;;;;;;
82310;SPS30;72015;51.330;12.316;2024-02-23T18:02:12;2.57;;2.57;;;;;;;
82310;SPS30;72015;51.330;12.316;2024-02-23T18:06:34;2.57;;2.57;;;;;;;
82310;SPS30;72015;51.330;12.316;2024-02-23T18:10:56;5.09;;4.77;;;;;;;
82310;SPS30;72015;51.330;12.316;2024-02-23T18:15:18;5.09;;4.77;;;;;;;
82310;SPS30;72015;51.330;12.316;2024-02-23T18:19:40;4.21;;3.85;;;;;;;
82310;SPS30;72015;51.330;12.316;2024-02-23T18:24:02;4.21;;3.85;;;;;;;
82310;SPS30;72015;51.330;12.316;2024-02-23T18:28:24;3.87;;3.64;;;;;;;
82310;SPS30;72015;51.330;12.316;2024-02-23T18:32:46;3.87;;3.64;;;;;;;
82310;SPS30;72015;51.330;12.316;2024-02-23T18:37:08;14.51;;12.67;;;;;;;
82310;SPS30;72015;51.330;12.316;2024-02-23T18:41:30;14.51;;12.67;;;;;;;
82310;SPS30;72015;51.330;12.316;2024-02-23T18:45:52;14.51;;12.67;;;;;;;
82310;SPS30;72015;51.330;12.316;2024-02-23T18:50:14;4.38;;4.02;;;;;;;
82310;SPS30;72015;51.330;12.316;2024-02-23T18:54:36;4.38;;4.02;;;;;;;
82310;SPS30;72015;51.330;12.316;2024-02-23T18:58:58;6.64;;5.35;;;;;;;
82310;SPS30;72015;51.330;12.316;2024-02-23T19:03:20;6.64;;5.35;;;;;;;
82310;SPS30;72015;51.330;12.316;2024-02-23T19:07:42;8.18;;6.20;;;;;;;
82310;SPS30;72015;51.330;12.316;2024-02-23T19:12:04;8.18;;6.20;;;;;;;
82310;SPS30;72015;51.330;12.316;2024-02-23T19:16:26;8.18;;6.20;;;;;;;
82310;SPS30;72015;51.330;12.316;2024-02-23T19:20:48;3.36;;3.03;;;;;;;
82310;SPS30;72015;51.330;12.316;2024-02-23T19:25:10;3.36;;3.03;;;;;;;
82310;SPS30;72015;51.330;12.316;2024-02-23T19:29:32;6.21;;5.36;;;;;;;
82310;SPS30;72015;51.330;12.316;2024-02-23T19:33:54;6.21;;5.36;;;;;;;
82310;SPS30;72015;51.330;12.316;2024-02-23T19:38:16;6.13;;6.13;;;;;;;
82310;SPS30;72015;51.330;12.316;2024-02-23T19:42:38;6.13;;6.13;;;;;;;
82310;SPS30;72015;51.330;12.316;2024-02-23T19:47:00;6.13;;6.13;;;;;;;
82310;SPS30;72015;51.330;12.316;2024-02-23T19:51:23;6.20;;5.78;;;;;;;
82310;SPS30;72015;51.330;12.316;2024-02-23T19:55:45;6.20;;5.78;;;;;;;
82310;SPS30;72015;51.330;12.316;2024-02-23T20:00:06;7.55;;6.48;;;;;;;
82310;SPS30;72015;51.330;12.316;2024-02-23T20:04:28;7.55;;6.48;;;;;;;
82310;SPS30;72015;51.330;12.316;2024-02-23T20:08:50;6.12;;5.36;;;;;;;
82310;SPS30;72015;51.330;12.316;2024-02-23T20:13:12;6.12;;5.36;;;;;;;
82310;SPS30;72015;51.330;12.316;2024-02-23T20:17:34;4.65;;4.65;;;;;;;
82310;SPS30;72015;51.330;12.316;2024-02-23T20:21:56;4.65;;4.65;;;;;;;
82310;SPS30;72015;51.330;12.316;2024-02-23T20:26:18;4.65;;4.65;;;;;;;
82310;SPS30;72015;51.330;12.316;2024-02-23T20:30:40;4.00;;3.80;;;;;;;
82310;SPS30;72015;51.330;12.316;2024-02-23T20:35:02;4.00;;3.80;;;;;;;
82310;SPS30;72015;51.330;12.316;2024-02-23T20:39:24;9.06;;6.93;;;;;;;
82310;SPS30;72015;51.330;12.316;2024-02-23T20:43:46;9.06;;6.93;;;;;;;
82310;SPS30;72015;51.330;12.316;2024-02-23T20:48:08;4.49;;4.49;;;;;;;
82310;SPS30;72015;51.330;12.316;2024-02-23T20:52:30;4.49;;4.49;;;;;;;
82310;SPS30;72015;51.330;12.316;2024-02-23T20:56:52;4.49;;4.49;;;;;;;
82310;SPS30;72015;51.330;12.316;2024-02-23T21:01:14;3.72;;3.72;;;;;;;
82310;SPS30;72015;51.330;12.316;2024-02-23T21:05:36;3.72;;3.72;;;;;;;
82310;SPS30;72015;51.330;12.316;2024-02-23T21:09:58;7.57;;6.65;;;;;;;
82310;SPS30;72015;51.330;12.316;2024-02-23T21:14:20;7.57;;6.65;;;;;;;
82310;SPS30;72015;51.330;12.316;2024-02-23T21:18:42;8.21;;7.27;;;;;;;
82310;SPS30;72015;51.330;12.316;2024-02-23T21:23:04;8.21;;7.27;;;;;;;
82310;SPS30;72015;51.330;12.316;2024-02-23T21:27:26;10.93;;10.55;;;;;;;
82310;SPS30;72015;51.330;12.316;2024-02-23T21:31:48;10.93;;10.55;;;;;;;
82310;SPS30;72015;51.330;12.316;2024-02-23T21:36:10;10.93;;10.55;;;;;;;
82310;SPS30;72015;51.330;12.316;2024-02-23T21:40:32;7.74;;7.30;;;;;;;
82310;SPS30;72015;51.330;12.316;2024-02-23T21:44:54;7.74;;7.30;;;;;;;
82310;SPS30;72015;51.330;12.316;2024-02-23T21:49:16;9.62;;9.22;;;;;;;
82310;SPS30;72015;51.330;12.316;2024-02-23T21:53:38;9.62;;9.22;;;;;;;
82310;SPS30;72015;51.330;12.316;2024-02-23T21:58:00;7.80;;7.22;;;;;;;
82310;SPS30;72015;51.330;12.316;2024-02-23T22:02:23;7.80;;7.22;;;;;;;
82310;SPS30;72015;51.330;12.316;2024-02-23T22:06:44;7.80;;7.22;;;;;;;
82310;SPS30;72015;51.330;12.316;2024-02-23T22:11:06;11.35;;9.86;;;;;;;
82310;SPS30;72015;51.330;12.316;2024-02-23T22:15:28;11.35;;9.86;;;;;;;
82310;SPS30;72015;51.330;12.316;2024-02-23T22:19:50;5.75;;5.24;;;;;;;
82310;SPS30;72015;51.330;12.316;2024-02-23T22:24:12;5.75;;5.24;;;;;;;
82310;SPS30;72015;51.330;12.316;2024-02-23T22:28:34;6.03;;5.29;;;;;;;
82310;SPS30;72015;51.330;12.316;2024-02-23T22:32:56;6.03;;5.29;;;;;;;
82310;SPS30;72015;51.330;12.316;2024-02-23T22:37:18;5.15;;5.15;;;;;;;
82310;SPS30;72015;51.330;12.316;2024-02-23T22:41:40;5.15;;5.15;;;;;;;
82310;SPS30;72015;51.330;12.316;2024-02-23T22:46:02;5.15;;5.15;;;;;;;
82310;SPS30;72015;51.330;12.316;2024-02-23T22:50:24;5.84;;5.84;;;;;;;
82310;SPS30;72015;51.330;12.316;2024-02-23T22:54:46;5.84;;5.84;;;;;;;
82310;SPS30;72015;51.330;12.316;2024-02-23T22:59:08;6.99;;6.32;;;;;;;
82310;SPS30;72015;51.330;12.316;2024-02-23T23:03:30;6.99;;6.32;;;;;;;
82310;SPS30;72015;51.330;12.316;2024-02-23T23:07:53;9.03;;8.61;;;;;;;
82310;SPS30;72015;51.330;12.316;2024-02-23T23:12:15;9.03;;8.61;;;;;;;
82310;SPS30;72015;51.330;12.316;2024-02-23T23:16:37;9.03;;8.61;;;;;;;
82310;SPS30;72015;51.330;12.316;2024-02-23T23:20:59;5.89;;5.89;;;;;;;
82310;SPS30;72015;51.330;12.316;2024-02-23T23:25:20;5.89;;5.89;;;;;;;
82310;SPS30;72015;51.330;12.316;2024-02-23T23:29:43;7.37;;6.41;;;;;;;
82310;SPS30;72015;51.330;12.316;2024-02-23T23:34:04;7.37;;6.41;;;;;;;
82310;SPS30;72015;51.330;12.316;2024-02-23T23:38:26;11.99;;11.41;;;;;;;
82310;SPS30;72015;51.330;12.316;2024-02-23T23:42:48;11.99;;11.41;;;;;;;
82310;SPS30;72015;51.330;12.316;2024-02-23T23:47:11;8.34;;7.72;;;;;;;
82310;SPS30;72015;51.330;12.316;2024-02-23T23:51:33;8.34;;7.72;;;;;;;
82310;SPS30;72015;51.330;12.316;2024-02-23T23:55:55;8.34;;7.72;;;;;;;
